KDEN/DEN METAR and TAF weather

Enter ICAO airport designator
Station Type Date Time Source
KDEN METAR 2021/05/14 21:53 UTC NOAA

KDEN 142153Z 02012KT 10SM -RA SCT085 BKN110 BKN220 18/07 A3009 RMK AO2 RAB48 SLP140 CB DSNT SW MOV SE P0000 T01830072


Station Type Date Time Source
KDEN Decoded METAR 2021/05/14 21:53 UTC NOAA

DENVER INTERNATIONAL AIRPORT, CO, United States (KDEN) 39-52N 104-40W 1640M
May 14, 2021 - 05:53 PM EDT / 2021.05.14 2153 UTC
Wind: from the NNE (020 degrees) at 14 MPH (12 KT):0
Visibility: 10 mile(s):0
Sky conditions: mostly cloudy
Weather: light rain; Cumulonimbus clouds observed
Precipitation last hour: A trace
Temperature: 64.9 F (18.3 C)
Dew Point: 45.0 F (7.2 C)
Relative Humidity: 48%
Pressure (altimeter): 30.09 in. Hg (1018 hPa)
ob: KDEN 142153Z 02012KT 10SM -RA SCT085 BKN110 BKN220 18/07 A3009 RMK AO2 RAB48 SLP140 CB DSNT SW MOV SE P0000 T01830072
cycle: 22

Station Type Date Time Source
KDEN TAF 2021/05/14 22:58 UTC NOAA

TAF
AMD KDEN 142156Z 1422/1524 04009KT P6SM SCT080 BKN110
TEMPO 1422/1502 VRB20G40KT -TSRA BKN070CB
FM150300 36012G20KT P6SM SCT070 SCT120
FM150700 02006KT P6SM SCT012 BKN120
TEMPO 1508/1511 3SM BR BKN012
FM151100 14006KT 3/4SM BR BKN004 OVC008
FM151500 12006KT P6SM BKN008 BKN120
FM151700 10006KT P6SM BKN020 BKN120
FM152100 10011KT P6SM SCT020 SCT080 BKN120 PROB30 1521/1524 -TSRA BKN070CB

Example: see airport list